createdAt,value
2022-10-30T00:01:13.728Z,9.95
2022-10-30T00:03:11.003Z,9.95
2022-10-30T00:05:09.670Z,9.95
2022-10-30T00:07:09.596Z,9.95
2022-10-30T00:09:09.712Z,9.95
2022-10-30T00:11:09.268Z,9.95
2022-10-30T00:13:09.546Z,9.95
2022-10-30T00:15:09.557Z,9.95
2022-10-30T00:17:08.872Z,9.95
2022-10-30T00:19:09.600Z,9.95
2022-10-30T00:21:08.969Z,9.95
2022-10-30T00:23:10.101Z,9.95
2022-10-30T00:25:09.247Z,9.95
2022-10-30T00:27:09.659Z,9.95
2022-10-30T00:29:08.863Z,9.95
2022-10-30T00:31:09.286Z,9.95
2022-10-30T00:33:10.261Z,9.95
2022-10-30T00:35:08.995Z,9.95
2022-10-30T00:37:08.753Z,9.95
2022-10-30T00:39:09.862Z,9.95
2022-10-30T00:41:09.442Z,9.95
2022-10-30T00:43:09.533Z,9.95
2022-10-30T00:45:08.975Z,9.95
2022-10-30T00:47:09.344Z,9.95
2022-10-30T00:49:09.833Z,9.95
2022-10-30T00:51:09.794Z,9.95
2022-10-30T00:53:09.913Z,9.95
2022-10-30T00:55:09.531Z,9.95
2022-10-30T00:57:09.572Z,9.95
2022-10-30T00:59:10.077Z,9.95
2022-10-30T01:01:09.074Z,9.95
2022-10-30T01:03:11.180Z,9.95
2022-10-30T01:05:15.369Z,9.95
2022-10-30T01:07:09.395Z,9.95
2022-10-30T01:09:11.820Z,9.95
2022-10-30T01:11:09.448Z,9.95
2022-10-30T01:13:08.887Z,9.95
2022-10-30T01:15:09.101Z,9.95
2022-10-30T01:17:09.305Z,9.95
2022-10-30T01:19:09.119Z,9.95
2022-10-30T01:21:10.020Z,9.95
2022-10-30T01:23:10.145Z,9.95
2022-10-30T01:25:09.079Z,9.95
2022-10-30T01:27:09.141Z,9.95
2022-10-30T01:29:09.341Z,9.95
2022-10-30T01:31:08.846Z,9.95
2022-10-30T01:33:09.301Z,9.95
2022-10-30T01:35:09.325Z,9.95
2022-10-30T01:37:09.339Z,9.95
2022-10-30T01:39:09.423Z,9.95
2022-10-30T01:41:09.457Z,9.95
2022-10-30T01:43:08.929Z,9.95
2022-10-30T01:45:08.798Z,9.95
2022-10-30T01:47:09.410Z,9.95
2022-10-30T01:49:09.408Z,9.95
2022-10-30T01:51:09.371Z,9.95
2022-10-30T01:53:09.647Z,9.95
2022-10-30T01:55:09.440Z,9.95
2022-10-30T01:57:09.562Z,9.95
2022-10-30T01:59:09.415Z,9.95
2022-10-30T02:01:13.425Z,9.95
2022-10-30T02:03:11.227Z,9.95
2022-10-30T02:05:12.500Z,9.95
2022-10-30T02:07:08.756Z,9.95
2022-10-30T02:09:09.604Z,9.95
2022-10-30T02:11:09.661Z,9.95
2022-10-30T02:13:08.971Z,9.95
2022-10-30T02:15:09.282Z,9.95
2022-10-30T02:17:08.838Z,9.95
2022-10-30T02:19:09.739Z,9.95
2022-10-30T02:21:09.202Z,9.95
2022-10-30T02:23:11.246Z,9.95
2022-10-30T02:25:09.395Z,9.95
2022-10-30T02:27:08.882Z,9.95
2022-10-30T02:29:08.848Z,9.95
2022-10-30T02:31:09.288Z,9.95
2022-10-30T02:33:09.456Z,9.95
2022-10-30T02:35:09.359Z,9.95
2022-10-30T02:37:09.313Z,9.95
2022-10-30T02:39:09.591Z,9.95
2022-10-30T02:41:09.121Z,9.95
2022-10-30T02:43:09.615Z,9.95
2022-10-30T02:45:09.204Z,9.95
2022-10-30T02:47:09.075Z,9.95
2022-10-30T02:49:10.708Z,9.95
2022-10-30T02:51:09.054Z,9.95
2022-10-30T02:53:09.757Z,9.95
2022-10-30T02:55:09.678Z,9.95
2022-10-30T02:57:09.077Z,9.95
2022-10-30T02:59:09.503Z,9.95
2022-10-30T03:01:11.801Z,9.95
2022-10-30T03:03:09.777Z,9.95
2022-10-30T03:05:09.791Z,9.95
2022-10-30T03:07:08.921Z,9.95
2022-10-30T03:09:09.697Z,9.95
2022-10-30T03:11:09.691Z,9.95
2022-10-30T03:13:08.833Z,9.95
2022-10-30T03:15:09.397Z,9.95
2022-10-30T03:17:08.824Z,9.95
2022-10-30T03:19:09.645Z,9.95
2022-10-30T03:21:09.414Z,9.95
2022-10-30T03:23:09.015Z,9.95
2022-10-30T03:25:09.608Z,9.95
2022-10-30T03:27:09.584Z,9.95
2022-10-30T03:29:09.630Z,9.95
2022-10-30T03:31:08.929Z,9.95
2022-10-30T03:33:10.998Z,9.95
2022-10-30T03:35:08.928Z,9.95
2022-10-30T03:37:09.638Z,9.95
2022-10-30T03:39:09.729Z,9.95
2022-10-30T03:41:09.651Z,9.95
2022-10-30T03:43:10.491Z,9.95
2022-10-30T03:45:09.420Z,9.95
2022-10-30T03:47:08.953Z,9.95
2022-10-30T03:49:09.517Z,9.95
2022-10-30T03:51:09.477Z,9.95
2022-10-30T03:53:09.080Z,9.95
2022-10-30T03:55:08.869Z,9.95
2022-10-30T03:57:08.843Z,9.95
2022-10-30T03:59:08.946Z,9.95
2022-10-30T04:01:11.901Z,9.95
2022-10-30T04:03:11.023Z,9.95
2022-10-30T04:05:09.501Z,9.95
2022-10-30T04:07:09.236Z,9.95
2022-10-30T04:09:09.398Z,9.95
2022-10-30T04:11:09.702Z,9.95
2022-10-30T04:13:09.218Z,9.95
2022-10-30T04:15:08.911Z,9.95
2022-10-30T04:19:09.845Z,9.95
2022-10-30T04:21:09.325Z,9.95
2022-10-30T04:23:09.694Z,9.95
2022-10-30T04:25:08.857Z,9.95
2022-10-30T04:27:09.519Z,9.95
2022-10-30T04:29:09.223Z,9.95
2022-10-30T04:31:09.243Z,9.95
2022-10-30T04:33:09.740Z,9.95
2022-10-30T04:35:09.721Z,9.95
2022-10-30T04:37:09.240Z,9.95
2022-10-30T04:39:09.580Z,9.95
2022-10-30T04:41:09.649Z,9.95
2022-10-30T04:43:09.762Z,9.95
2022-10-30T04:45:14.107Z,9.95
2022-10-30T04:47:09.706Z,9.95
2022-10-30T04:49:09.805Z,9.95
2022-10-30T04:51:09.703Z,9.95
2022-10-30T04:53:08.808Z,9.95
2022-10-30T04:55:09.711Z,9.95
2022-10-30T04:57:09.170Z,9.95
2022-10-30T04:59:09.936Z,9.95
2022-10-30T05:01:14.937Z,9.95
2022-10-30T05:03:10.883Z,9.95
2022-10-30T05:05:09.589Z,9.95
2022-10-30T05:07:08.892Z,9.95
2022-10-30T05:09:10.290Z,9.95
2022-10-30T05:11:09.729Z,9.95
2022-10-30T05:13:09.194Z,9.95
2022-10-30T05:15:08.805Z,9.95
2022-10-30T05:17:09.042Z,9.95
2022-10-30T05:19:09.625Z,9.95
2022-10-30T05:21:15.046Z,9.95
2022-10-30T05:23:09.341Z,9.95
2022-10-30T05:25:09.672Z,9.95
2022-10-30T05:27:08.894Z,9.95
2022-10-30T05:29:09.505Z,9.95
2022-10-30T05:31:09.462Z,9.95
2022-10-30T05:33:09.406Z,9.95
2022-10-30T05:35:14.657Z,9.95
2022-10-30T05:37:09.606Z,9.95
2022-10-30T05:39:09.706Z,9.95
2022-10-30T05:41:09.212Z,9.95
2022-10-30T05:43:10.956Z,9.95
2022-10-30T05:45:35.642Z,9.95
2022-10-30T05:47:09.330Z,9.95
2022-10-30T05:49:09.656Z,9.95
2022-10-30T05:51:09.753Z,9.95
2022-10-30T05:53:09.243Z,9.95
2022-10-30T05:55:09.808Z,9.95
2022-10-30T05:57:09.782Z,9.95
2022-10-30T05:59:09.649Z,9.95
2022-10-30T06:01:12.402Z,9.95
2022-10-30T06:03:10.358Z,9.95
2022-10-30T06:05:09.610Z,9.95
2022-10-30T06:07:08.953Z,9.95
2022-10-30T06:09:09.410Z,9.95
2022-10-30T06:11:09.757Z,9.95
2022-10-30T06:13:10.383Z,9.95
2022-10-30T06:15:09.496Z,9.95
2022-10-30T06:17:09.176Z,9.95
2022-10-30T06:19:13.965Z,9.95
2022-10-30T06:21:09.513Z,9.95
2022-10-30T06:23:09.427Z,9.95
2022-10-30T06:25:09.236Z,9.95
2022-10-30T06:27:08.664Z,9.95
2022-10-30T06:29:09.635Z,9.95
2022-10-30T06:31:10.364Z,9.95
2022-10-30T06:33:14.405Z,9.95
2022-10-30T06:35:09.165Z,9.95
2022-10-30T06:37:09.884Z,9.95
2022-10-30T06:39:08.860Z,9.95
2022-10-30T06:41:09.130Z,9.95
2022-10-30T06:43:09.707Z,9.95
2022-10-30T06:45:09.011Z,9.95
2022-10-30T06:47:15.782Z,9.95
2022-10-30T06:49:10.017Z,9.95
2022-10-30T06:51:09.353Z,9.95
2022-10-30T06:53:08.987Z,9.95
2022-10-30T06:55:08.816Z,9.95
2022-10-30T06:57:09.534Z,9.95
2022-10-30T06:59:09.845Z,9.95
2022-10-30T07:01:11.765Z,9.95
2022-10-30T07:03:14.444Z,9.95
2022-10-30T07:05:08.823Z,9.95
2022-10-30T07:07:09.449Z,9.95
2022-10-30T07:09:09.730Z,9.95
2022-10-30T07:11:09.028Z,9.95
2022-10-30T07:13:14.607Z,9.95
2022-10-30T07:15:09.233Z,9.95
2022-10-30T07:17:08.991Z,9.95
2022-10-30T07:19:16.038Z,9.95
2022-10-30T07:21:09.741Z,9.95
2022-10-30T07:23:08.772Z,9.95
2022-10-30T07:25:09.286Z,9.95
2022-10-30T07:27:12.007Z,9.95
2022-10-30T07:29:10.144Z,9.95
2022-10-30T07:31:09.977Z,9.95
2022-10-30T07:33:12.185Z,9.95
2022-10-30T07:35:08.892Z,9.95
2022-10-30T07:37:09.155Z,9.95
2022-10-30T07:39:09.027Z,9.95
2022-10-30T07:41:09.632Z,9.95
2022-10-30T07:43:10.126Z,9.95
2022-10-30T07:47:08.834Z,9.95
2022-10-30T07:49:09.774Z,9.95
2022-10-30T07:51:08.820Z,9.95
2022-10-30T07:53:13.839Z,9.95
2022-10-30T07:55:08.908Z,9.95
2022-10-30T07:57:09.052Z,9.95
2022-10-30T07:59:13.732Z,9.95
2022-10-30T08:01:12.953Z,9.95
2022-10-30T08:03:10.800Z,9.95
2022-10-30T08:05:09.323Z,9.95
2022-10-30T08:07:12.396Z,9.95
2022-10-30T08:09:16.811Z,9.95
2022-10-30T08:11:09.698Z,9.95
2022-10-30T08:13:08.693Z,9.95
2022-10-30T08:15:09.122Z,9.95
2022-10-30T08:17:09.485Z,9.95
2022-10-30T08:19:09.687Z,9.95
2022-10-30T08:21:10.863Z,9.95
2022-10-30T08:23:10.314Z,9.95
2022-10-30T08:25:08.887Z,9.95
2022-10-30T08:27:09.478Z,9.95
2022-10-30T08:29:16.778Z,9.95
2022-10-30T08:31:09.383Z,9.95
2022-10-30T08:33:09.863Z,9.95
2022-10-30T08:35:09.579Z,9.95
2022-10-30T08:37:11.978Z,9.95
2022-10-30T08:39:09.830Z,9.95
2022-10-30T08:41:09.725Z,9.95
2022-10-30T08:43:09.595Z,9.95
2022-10-30T08:45:08.991Z,9.95
2022-10-30T08:47:09.684Z,9.95
2022-10-30T08:49:09.807Z,9.95
2022-10-30T08:51:09.346Z,9.95
2022-10-30T08:53:15.229Z,9.95
2022-10-30T08:55:09.099Z,9.95
2022-10-30T08:57:09.464Z,9.95
2022-10-30T08:59:09.123Z,9.95
2022-10-30T09:01:13.292Z,9.95
2022-10-30T09:03:10.568Z,9.95
2022-10-30T09:05:09.555Z,9.95
2022-10-30T09:07:12.091Z,9.95
2022-10-30T09:09:10.460Z,9.95
2022-10-30T09:11:09.330Z,9.95
2022-10-30T09:13:09.540Z,9.95
2022-10-30T09:15:09.125Z,9.95
2022-10-30T09:17:09.326Z,9.95
2022-10-30T09:19:12.517Z,9.95
2022-10-30T09:21:15.677Z,9.95
2022-10-30T09:23:09.725Z,9.95
2022-10-30T09:25:08.934Z,9.95
2022-10-30T09:27:16.161Z,9.95
2022-10-30T09:29:09.142Z,9.95
2022-10-30T09:31:09.299Z,0.41
2022-10-30T09:33:16.204Z,0.41
2022-10-30T09:35:09.284Z,0.41
2022-10-30T09:37:15.932Z,0.07
2022-10-30T09:39:10.249Z,0.07
2022-10-30T09:41:11.313Z,0.07
2022-10-30T09:43:08.904Z,3.72
2022-10-30T09:45:41.140Z,3.72
2022-10-30T09:47:09.638Z,3.72
2022-10-30T09:51:13.596Z,2.58
2022-10-30T09:53:10.372Z,2.58
2022-10-30T09:55:09.116Z,0.02
2022-10-30T09:57:13.700Z,0.02
2022-10-30T09:59:09.005Z,0.02
2022-10-30T10:01:18.548Z,1.77
2022-10-30T10:03:11.164Z,1.77
2022-10-30T10:05:12.345Z,1.77
2022-10-30T10:07:09.805Z,1.59
2022-10-30T10:09:09.734Z,1.59
2022-10-30T10:11:09.657Z,1.59
2022-10-30T10:13:12.608Z,0.01
2022-10-30T10:15:09.778Z,0.01
2022-10-30T10:17:09.235Z,0.01
2022-10-30T10:19:09.289Z,1.36
2022-10-30T10:21:09.819Z,1.36
2022-10-30T10:23:09.970Z,1.36
2022-10-30T10:25:15.956Z,0.01
2022-10-30T10:27:09.613Z,0.01
2022-10-30T10:29:10.764Z,0.01
2022-10-30T10:31:08.941Z,0.01
2022-10-30T10:33:10.032Z,0.01
2022-10-30T10:35:08.736Z,0.01
2022-10-30T10:37:09.579Z,0.01
2022-10-30T10:39:09.250Z,0.01
2022-10-30T10:41:09.461Z,0.01
2022-10-30T10:43:09.231Z,0.01
2022-10-30T10:45:09.589Z,0.01
2022-10-30T10:47:08.850Z,0.01
2022-10-30T10:49:10.145Z,0.01
2022-10-30T10:51:08.925Z,0.01
2022-10-30T10:53:09.789Z,0.01
2022-10-30T10:55:09.501Z,0.01
2022-10-30T10:57:08.819Z,0.01
2022-10-30T10:59:09.605Z,0.01
2022-10-30T11:01:11.823Z,1.08
2022-10-30T11:03:10.889Z,1.08
2022-10-30T11:05:09.531Z,1.08
2022-10-30T11:07:09.685Z,1.06
2022-10-30T11:09:09.995Z,1.06
2022-10-30T11:11:09.048Z,1.06
2022-10-30T11:13:10.978Z,0.01
2022-10-30T11:15:09.802Z,0.01
2022-10-30T11:17:09.124Z,0.01
2022-10-30T11:19:09.609Z,0.01
2022-10-30T11:21:09.103Z,0.01
2022-10-30T11:23:10.060Z,0.01
2022-10-30T11:25:09.207Z,0.01
2022-10-30T11:27:09.202Z,0.01
2022-10-30T11:29:09.441Z,0.01
2022-10-30T11:31:09.253Z,0.01
2022-10-30T11:33:09.727Z,0.01
2022-10-30T11:35:08.803Z,0.01
2022-10-30T11:37:12.250Z,1.01
2022-10-30T11:39:08.728Z,1.01
2022-10-30T11:41:09.721Z,1.01
2022-10-30T11:43:09.642Z,0.01
2022-10-30T11:45:09.448Z,0.01
2022-10-30T11:47:08.873Z,0.01
2022-10-30T11:49:12.338Z,0.01
2022-10-30T11:51:09.960Z,0.01
2022-10-30T11:53:09.017Z,0.01
2022-10-30T11:55:09.829Z,0.01
2022-10-30T11:57:09.004Z,0.01
2022-10-30T11:59:10.531Z,0.01
2022-10-30T12:01:13.439Z,0.01
2022-10-30T12:03:10.174Z,0.01
2022-10-30T12:05:09.585Z,0.01
2022-10-30T12:07:09.019Z,0.01
2022-10-30T12:09:09.676Z,0.01
2022-10-30T12:11:09.224Z,0.01
2022-10-30T12:13:14.447Z,0.93
2022-10-30T12:15:09.854Z,0.93
2022-10-30T12:17:09.778Z,0.93
2022-10-30T12:19:09.148Z,0.01
2022-10-30T12:21:09.599Z,0.01
2022-10-30T12:23:09.555Z,0.01
2022-10-30T12:25:09.301Z,0.01
2022-10-30T12:27:09.006Z,0.01
2022-10-30T12:29:08.826Z,0.01
2022-10-30T12:31:17.668Z,0.01
2022-10-30T12:33:13.974Z,0.01
2022-10-30T12:35:09.625Z,0.01
2022-10-30T12:37:09.740Z,0.83
2022-10-30T12:39:09.851Z,0.83
2022-10-30T12:41:08.927Z,0.83
2022-10-30T12:43:09.384Z,0.01
2022-10-30T12:45:09.662Z,0.01
2022-10-30T12:47:09.363Z,0.01
2022-10-30T12:49:09.643Z,0.8
2022-10-30T12:51:09.778Z,0.8
2022-10-30T12:53:09.305Z,0.8
2022-10-30T12:55:08.934Z,0.01
2022-10-30T12:57:09.711Z,0.01
2022-10-30T12:59:09.059Z,0.01
2022-10-30T13:01:12.210Z,0.01
2022-10-30T13:03:10.663Z,0.01
2022-10-30T13:05:08.921Z,0.01
2022-10-30T13:07:09.202Z,0.01
2022-10-30T13:09:13.798Z,0.01
2022-10-30T13:11:09.768Z,0.01
2022-10-30T13:13:09.773Z,0.89
2022-10-30T13:15:09.714Z,0.89
2022-10-30T13:17:09.043Z,0.89
2022-10-30T13:19:09.406Z,0.01
2022-10-30T13:21:09.049Z,0.01
2022-10-30T13:23:10.230Z,0.01
2022-10-30T13:25:15.453Z,0.91
2022-10-30T13:27:09.149Z,0.91
2022-10-30T13:29:09.393Z,0.91
2022-10-30T13:31:08.947Z,0.93
2022-10-30T13:33:09.793Z,0.93
2022-10-30T13:35:09.305Z,0.93
2022-10-30T13:37:09.758Z,0.95
2022-10-30T13:39:09.588Z,0.95
2022-10-30T13:41:08.764Z,0.95
2022-10-30T13:43:09.250Z,0.01
2022-10-30T13:45:09.641Z,0.01
2022-10-30T13:47:09.472Z,0.01
2022-10-30T13:49:09.310Z,0.01
2022-10-30T13:51:09.016Z,0.01
2022-10-30T13:53:11.400Z,0.01
2022-10-30T13:55:09.494Z,0.01
2022-10-30T13:57:09.123Z,0.01
2022-10-30T13:59:08.803Z,0.01
2022-10-30T14:01:11.579Z,0.01
2022-10-30T14:03:11.626Z,0.01
2022-10-30T14:05:09.267Z,0.01
2022-10-30T14:07:09.601Z,0.86
2022-10-30T14:09:13.926Z,0.86
2022-10-30T14:11:12.323Z,0.86
2022-10-30T14:13:09.919Z,0.01
2022-10-30T14:15:09.572Z,0.01
2022-10-30T14:17:09.174Z,0.01
2022-10-30T14:19:09.096Z,0.01
2022-10-30T14:21:10.925Z,0.01
2022-10-30T14:23:09.198Z,0.01
2022-10-30T14:25:09.241Z,0.01
2022-10-30T14:27:15.306Z,0.01
2022-10-30T14:29:09.589Z,0.01
2022-10-30T14:31:09.804Z,0.01
2022-10-30T14:33:10.026Z,0.01
2022-10-30T14:35:09.390Z,0.01
2022-10-30T14:37:08.991Z,0.01
2022-10-30T14:39:09.659Z,0.01
2022-10-30T14:41:12.763Z,0.01
2022-10-30T14:43:09.286Z,0
2022-10-30T14:45:09.000Z,0
2022-10-30T14:47:13.296Z,0
2022-10-30T14:49:08.964Z,0.48
2022-10-30T14:51:09.093Z,0.48
2022-10-30T14:53:09.373Z,0.48
2022-10-30T14:55:14.707Z,0.46
2022-10-30T14:57:09.890Z,0.46
2022-10-30T14:59:09.745Z,0.46
2022-10-30T15:01:11.756Z,0
2022-10-30T15:03:10.769Z,0
2022-10-30T15:05:09.924Z,0
2022-10-30T15:07:09.130Z,0
2022-10-30T15:09:09.976Z,0
2022-10-30T15:11:11.782Z,0
2022-10-30T15:13:13.671Z,0
2022-10-30T15:15:37.994Z,0
2022-10-30T15:17:09.065Z,0
2022-10-30T15:19:15.992Z,0
2022-10-30T15:21:09.747Z,0
2022-10-30T15:23:10.223Z,0
2022-10-30T15:25:16.249Z,0
2022-10-30T15:27:16.866Z,0
2022-10-30T15:29:10.205Z,0
2022-10-30T15:31:09.806Z,0
2022-10-30T15:33:09.894Z,0
2022-10-30T15:35:09.064Z,0
2022-10-30T15:37:09.383Z,0
2022-10-30T15:39:09.358Z,0
2022-10-30T15:41:09.924Z,0
2022-10-30T15:43:10.046Z,0
2022-10-30T15:45:09.636Z,0
2022-10-30T15:47:09.270Z,0
2022-10-30T15:49:10.287Z,0
2022-10-30T15:51:09.368Z,0
2022-10-30T15:53:09.316Z,0
2022-10-30T15:55:09.402Z,0
2022-10-30T15:58:23.963Z,0
2022-10-30T16:01:09.696Z,0
2022-10-30T16:03:10.299Z,0
2022-10-30T16:05:09.673Z,0
2022-10-30T16:07:09.416Z,0.04
2022-10-30T16:09:09.640Z,0.04
2022-10-30T16:11:08.941Z,0.04
2022-10-30T16:13:09.787Z,0.04
2022-10-30T16:15:09.707Z,0.04
2022-10-30T16:17:09.444Z,0.04
2022-10-30T16:19:10.080Z,0.04
2022-10-30T16:21:09.073Z,0.04
2022-10-30T16:23:09.287Z,0.04
2022-10-30T16:25:08.938Z,0.04
2022-10-30T16:27:09.300Z,0.04
2022-10-30T16:29:10.059Z,0.04
2022-10-30T16:31:09.182Z,0.04
2022-10-30T16:33:10.443Z,0.04
2022-10-30T16:35:08.748Z,0.04
2022-10-30T16:37:09.633Z,0.04
2022-10-30T16:39:09.437Z,0.04
2022-10-30T16:41:09.542Z,0.04
2022-10-30T16:43:09.356Z,0.04
2022-10-30T16:45:09.765Z,0.04
2022-10-30T16:47:09.305Z,0.04
2022-10-30T16:49:16.395Z,0.04
2022-10-30T16:51:08.960Z,0.04
2022-10-30T16:53:09.886Z,0.04
2022-10-30T16:55:08.977Z,0.04
2022-10-30T16:57:09.143Z,0.04
2022-10-30T16:59:09.255Z,0.04
2022-10-30T17:01:13.907Z,0.04
2022-10-30T17:03:10.494Z,0.04
2022-10-30T17:05:11.897Z,0.04
2022-10-30T17:07:09.464Z,0.04
2022-10-30T17:09:10.223Z,0.04
2022-10-30T17:11:09.442Z,0.04
2022-10-30T17:13:08.874Z,0.04
2022-10-30T17:15:08.920Z,0.04
2022-10-30T17:17:10.717Z,0.04
2022-10-30T17:19:09.920Z,0.04
2022-10-30T17:21:16.018Z,0.04
2022-10-30T17:23:10.100Z,0.04
2022-10-30T17:25:08.744Z,0.04
2022-10-30T17:27:09.289Z,0.04
2022-10-30T17:29:09.420Z,0.04
2022-10-30T17:31:08.900Z,0.04
2022-10-30T17:33:10.214Z,0.04
2022-10-30T17:35:12.118Z,0.04
2022-10-30T17:37:08.807Z,0.04
2022-10-30T17:39:10.840Z,0.04
2022-10-30T17:41:08.844Z,0.04
2022-10-30T17:43:09.288Z,0.04
2022-10-30T17:45:09.088Z,0.04
2022-10-30T17:47:16.687Z,0.04
2022-10-30T17:49:09.987Z,0.04
2022-10-30T17:51:09.406Z,0.04
2022-10-30T17:53:10.233Z,0.04
2022-10-30T17:55:09.790Z,0.04
2022-10-30T17:57:09.417Z,0.04
2022-10-30T17:59:09.252Z,0.04
2022-10-30T18:01:12.115Z,0.04
2022-10-30T18:03:10.359Z,0.04
2022-10-30T18:05:17.266Z,0.04
2022-10-30T18:07:09.271Z,0.04
2022-10-30T18:09:13.750Z,0.04
2022-10-30T18:11:10.099Z,0.04
2022-10-30T18:13:09.723Z,0.04
2022-10-30T18:15:09.980Z,0.08
2022-10-30T18:17:15.302Z,0.08
2022-10-30T18:19:09.224Z,0.08
2022-10-30T18:21:09.112Z,0.08
2022-10-30T18:23:15.959Z,0.08
2022-10-30T18:25:09.598Z,0.08
2022-10-30T18:27:14.618Z,0.08
2022-10-30T18:29:08.873Z,0.08
2022-10-30T18:31:09.573Z,0.08
2022-10-30T18:33:15.966Z,0.08
2022-10-30T18:35:09.460Z,0.08
2022-10-30T18:37:08.793Z,0.08
2022-10-30T18:39:09.415Z,0.08
2022-10-30T18:41:09.397Z,0.08
2022-10-30T18:43:10.114Z,0.08
2022-10-30T18:45:08.962Z,0.08
2022-10-30T18:47:14.547Z,0.08
2022-10-30T18:49:10.414Z,0.08
2022-10-30T18:51:09.359Z,0.08
2022-10-30T18:53:09.518Z,0.08
2022-10-30T18:55:09.107Z,0.08
2022-10-30T18:57:09.218Z,0.08
2022-10-30T18:59:13.918Z,0.08
2022-10-30T19:01:46.261Z,0.08
2022-10-30T19:03:10.714Z,0.08
2022-10-30T19:05:17.073Z,0.08
2022-10-30T19:07:09.497Z,0.08
2022-10-30T19:09:10.139Z,0.08
2022-10-30T19:11:09.755Z,0.08
2022-10-30T19:13:34.519Z,0.08
2022-10-30T19:15:09.003Z,0.08
2022-10-30T19:17:09.455Z,0.08
2022-10-30T19:19:10.190Z,0.08
2022-10-30T19:21:40.994Z,0.08
2022-10-30T19:23:10.145Z,0.08
2022-10-30T19:25:09.197Z,0.08
2022-10-30T19:27:09.232Z,0.08
2022-10-30T19:29:10.001Z,0.08
2022-10-30T19:31:08.869Z,0.08
2022-10-30T19:33:08.976Z,0.08
2022-10-30T19:35:09.240Z,0.08
2022-10-30T19:37:09.648Z,0.08
2022-10-30T19:39:10.721Z,0.08
2022-10-30T19:41:09.661Z,0.08
2022-10-30T19:43:10.182Z,0.08
2022-10-30T19:45:08.948Z,0.08
2022-10-30T19:47:09.831Z,0.08
2022-10-30T19:49:34.287Z,0.08
2022-10-30T19:51:09.678Z,0.08
2022-10-30T19:53:14.750Z,0.08
2022-10-30T19:55:10.713Z,0.08
2022-10-30T19:57:09.532Z,0.08
2022-10-30T19:59:11.259Z,0.08
2022-10-30T20:01:12.686Z,0.08
2022-10-30T20:03:09.335Z,0.08
2022-10-30T20:05:09.689Z,0.08
2022-10-30T20:07:13.978Z,0.08
2022-10-30T20:09:09.882Z,0.08
2022-10-30T20:11:08.904Z,0.08
2022-10-30T20:13:09.665Z,0.08
2022-10-30T20:15:09.622Z,0.08
2022-10-30T20:17:09.120Z,0.08
2022-10-30T20:19:10.017Z,0.08
2022-10-30T20:21:08.974Z,0.08
2022-10-30T20:23:13.540Z,0.08
2022-10-30T20:25:08.889Z,0.08
2022-10-30T20:27:09.309Z,0.08
2022-10-30T20:29:14.595Z,0.08
2022-10-30T20:31:09.381Z,0.08
2022-10-30T20:33:09.368Z,0.08
2022-10-30T20:35:11.240Z,0.08
2022-10-30T20:37:09.267Z,0.08
2022-10-30T20:39:09.375Z,0.08
2022-10-30T20:41:09.285Z,0.08
2022-10-30T20:43:14.647Z,0.08
2022-10-30T20:45:08.780Z,0.08
2022-10-30T20:47:09.188Z,0.08
2022-10-30T20:49:17.694Z,0.08
2022-10-30T20:51:13.393Z,0.08
2022-10-30T20:53:09.156Z,0.08
2022-10-30T20:55:09.842Z,0.08
2022-10-30T20:57:08.913Z,0.08
2022-10-30T20:59:09.777Z,0.08
2022-10-30T21:01:12.237Z,0.08
2022-10-30T21:03:10.041Z,0.08
2022-10-30T21:05:42.571Z,0.08
2022-10-30T21:07:08.988Z,0.08
2022-10-30T21:09:09.545Z,0.08
2022-10-30T21:11:15.415Z,0.08
2022-10-30T21:13:13.487Z,0.08
2022-10-30T21:15:09.403Z,0.08
2022-10-30T21:17:09.710Z,0.08
2022-10-30T21:19:09.908Z,0.08
2022-10-30T21:21:09.344Z,0.08
2022-10-30T21:23:09.313Z,0.08
2022-10-30T21:25:09.155Z,0.08
2022-10-30T21:27:08.808Z,0.08
2022-10-30T21:29:09.804Z,0.08
2022-10-30T21:31:09.096Z,0.08
2022-10-30T21:33:11.064Z,0.08
2022-10-30T21:35:09.493Z,0.08
2022-10-30T21:37:09.632Z,0.08
2022-10-30T21:39:09.314Z,0.08
2022-10-30T21:41:09.220Z,0.08
2022-10-30T21:43:15.520Z,0.08
2022-10-30T21:45:09.158Z,0.08
2022-10-30T21:47:09.671Z,0.08
2022-10-30T21:49:08.802Z,0.08
2022-10-30T21:51:15.468Z,0.08
2022-10-30T21:53:09.519Z,0.08
2022-10-30T21:55:09.404Z,0.08
2022-10-30T21:59:09.451Z,0.08
2022-10-30T22:01:15.470Z,0.08
2022-10-30T22:03:08.992Z,0.08
2022-10-30T22:05:09.454Z,0.08
2022-10-30T22:07:08.792Z,0.08
2022-10-30T22:09:09.829Z,0.08
2022-10-30T22:11:08.851Z,0.08
2022-10-30T22:13:09.511Z,0.08
2022-10-30T22:15:08.809Z,0.08
2022-10-30T22:17:08.923Z,0.08
2022-10-30T22:19:10.179Z,0.08
2022-10-30T22:21:09.154Z,0.08
2022-10-30T22:23:09.363Z,0.08
2022-10-30T22:25:09.290Z,0.08
2022-10-30T22:27:09.216Z,0.08
2022-10-30T22:29:09.745Z,0.08
2022-10-30T22:31:09.608Z,0.08
2022-10-30T22:33:09.597Z,0.08
2022-10-30T22:35:09.624Z,0.08
2022-10-30T22:37:09.678Z,0.08
2022-10-30T22:39:09.300Z,0.08
2022-10-30T22:41:08.959Z,0.08
2022-10-30T22:43:09.988Z,0.08
2022-10-30T22:45:09.521Z,0.08
2022-10-30T22:47:09.858Z,0.08
2022-10-30T22:49:09.709Z,0.08
2022-10-30T22:51:13.476Z,0.08
2022-10-30T22:53:09.086Z,0.08
2022-10-30T22:55:09.189Z,0.08
2022-10-30T22:57:08.769Z,0.08
2022-10-30T22:59:10.614Z,0.08
2022-10-30T23:01:15.806Z,0.08
2022-10-30T23:03:10.537Z,0.08
2022-10-30T23:05:11.108Z,0.08
2022-10-30T23:07:09.311Z,0.08
2022-10-30T23:09:08.911Z,0.08
2022-10-30T23:11:08.966Z,0.08
2022-10-30T23:13:10.124Z,0.08
2022-10-30T23:15:09.342Z,0.08
2022-10-30T23:17:09.386Z,0.08
2022-10-30T23:19:10.040Z,0.08
2022-10-30T23:21:09.332Z,0.08
2022-10-30T23:23:09.336Z,0.08
2022-10-30T23:25:09.540Z,0.08
2022-10-30T23:27:09.337Z,0.08
2022-10-30T23:29:09.475Z,0.08
2022-10-30T23:31:09.155Z,0.08
2022-10-30T23:33:09.465Z,0.08
2022-10-30T23:35:09.580Z,0.08
2022-10-30T23:37:13.163Z,0.08
2022-10-30T23:39:09.453Z,0.08
2022-10-30T23:41:09.633Z,0.08
2022-10-30T23:43:09.408Z,0.08
2022-10-30T23:45:09.340Z,0.08
2022-10-30T23:47:09.224Z,0.08
2022-10-30T23:49:09.535Z,0.08
2022-10-30T23:51:09.211Z,0.08
2022-10-30T23:53:09.646Z,0.08
2022-10-30T23:55:09.569Z,0.08
2022-10-30T23:57:09.849Z,0.08
2022-10-30T23:59:10.027Z,0.08
